sensor_id;sensor_type;location;lat;lon;timestamp;pressure;altitude;pressure_sealevel;temperature;humidity
11011;BME280;5558;42.702;23.178;2023-05-24T00:00:33;93470.78;;;9.78;100.00
11011;BME280;5558;42.702;23.178;2023-05-24T00:02:59;93506.22;;;10.07;100.00
11011;BME280;5558;42.702;23.178;2023-05-24T00:05:28;93505.69;;;10.00;100.00
11011;BME280;5558;42.702;23.178;2023-05-24T00:07:56;93509.66;;;10.08;100.00
11011;BME280;5558;42.702;23.178;2023-05-24T00:10:23;93511.00;;;10.10;100.00
11011;BME280;5558;42.702;23.178;2023-05-24T00:12:50;93509.97;;;10.21;100.00
11011;BME280;5558;42.702;23.178;2023-05-24T00:15:18;93507.31;;;10.26;100.00
11011;BME280;5558;42.702;23.178;2023-05-24T00:17:45;93504.66;;;10.36;100.00
11011;BME280;5558;42.702;23.178;2023-05-24T00:20:12;93470.56;;;10.25;100.00
11011;BME280;5558;42.702;23.178;2023-05-24T00:22:39;93506.25;;;10.27;100.00
11011;BME280;5558;42.702;23.178;2023-05-24T00:25:07;93500.41;;;10.05;100.00
11011;BME280;5558;42.702;23.178;2023-05-24T00:27:34;93505.69;;;10.05;100.00
11011;BME280;5558;42.702;23.178;2023-05-24T00:30:01;93472.41;;;9.84;100.00
11011;BME280;5558;42.702;23.178;2023-05-24T00:32:29;93506.75;;;10.04;100.00
11011;BME280;5558;42.702;23.178;2023-05-24T00:34:56;93498.06;;;10.14;100.00
11011;BME280;5558;42.702;23.178;2023-05-24T00:37:23;93466.31;;;9.94;100.00
11011;BME280;5558;42.702;23.178;2023-05-24T00:39:50;93500.16;;;10.17;100.00
11011;BME280;5558;42.702;23.178;2023-05-24T00:42:17;93501.22;;;10.26;100.00
11011;BME280;5558;42.702;23.178;2023-05-24T00:44:44;93492.22;;;10.37;100.00
11011;BME280;5558;42.702;23.178;2023-05-24T00:47:10;93488.50;;;10.48;100.00
11011;BME280;5558;42.702;23.178;2023-05-24T00:49:39;93487.16;;;10.55;100.00
11011;BME280;5558;42.702;23.178;2023-05-24T00:52:06;93490.84;;;10.64;100.00
11011;BME280;5558;42.702;23.178;2023-05-24T00:54:34;93488.47;;;10.58;100.00
11011;BME280;5558;42.702;23.178;2023-05-24T00:57:00;93490.88;;;10.54;100.00
11011;BME280;5558;42.702;23.178;2023-05-24T00:59:28;93491.13;;;10.58;100.00
11011;BME280;5558;42.702;23.178;2023-05-24T01:01:55;93486.34;;;10.65;100.00
11011;BME280;5558;42.702;23.178;2023-05-24T01:04:22;93493.22;;;10.66;100.00
11011;BME280;5558;42.702;23.178;2023-05-24T01:07:01;93492.44;;;10.65;100.00
11011;BME280;5558;42.702;23.178;2023-05-24T01:09:33;93498.78;;;10.64;100.00
11011;BME280;5558;42.702;23.178;2023-05-24T01:12:13;93493.22;;;10.61;100.00
11011;BME280;5558;42.702;23.178;2023-05-24T01:14:46;93499.06;;;10.53;100.00
11011;BME280;5558;42.702;23.178;2023-05-24T01:17:20;93473.47;;;10.28;100.00
11011;BME280;5558;42.702;23.178;2023-05-24T01:19:51;93504.13;;;10.29;100.00
11011;BME280;5558;42.702;23.178;2023-05-24T01:22:39;93499.59;;;9.95;100.00
11011;BME280;5558;42.702;23.178;2023-05-24T01:25:18;93511.78;;;9.80;100.00
11011;BME280;5558;42.702;23.178;2023-05-24T01:27:49;93515.44;;;9.69;100.00
11011;BME280;5558;42.702;23.178;2023-05-24T01:30:17;93512.50;;;9.61;100.00
11011;BME280;5558;42.702;23.178;2023-05-24T01:32:44;93519.41;;;9.62;100.00
11011;BME280;5558;42.702;23.178;2023-05-24T01:35:11;93520.41;;;9.41;100.00
11011;BME280;5558;42.702;23.178;2023-05-24T01:37:38;93525.97;;;9.44;100.00
11011;BME280;5558;42.702;23.178;2023-05-24T01:40:06;93494.50;;;9.38;100.00
11011;BME280;5558;42.702;23.178;2023-05-24T01:42:43;93522.81;;;9.52;100.00
11011;BME280;5558;42.702;23.178;2023-05-24T01:45:15;93523.84;;;9.41;100.00
11011;BME280;5558;42.702;23.178;2023-05-24T01:47:56;93533.28;;;9.27;100.00
11011;BME280;5558;42.702;23.178;2023-05-24T01:50:31;93530.19;;;9.45;100.00
11011;BME280;5558;42.702;23.178;2023-05-24T01:53:03;93525.25;;;9.74;100.00
11011;BME280;5558;42.702;23.178;2023-05-24T01:55:32;93519.97;;;9.84;100.00
11011;BME280;5558;42.702;23.178;2023-05-24T01:58:01;93513.88;;;9.94;100.00
11011;BME280;5558;42.702;23.178;2023-05-24T02:00:30;93510.72;;;10.02;100.00
11011;BME280;5558;42.702;23.178;2023-05-24T02:02:58;93508.06;;;9.92;100.00
11011;BME280;5558;42.702;23.178;2023-05-24T02:05:27;93499.34;;;9.91;100.00
11011;BME280;5558;42.702;23.178;2023-05-24T02:07:54;93494.56;;;9.88;100.00
11011;BME280;5558;42.702;23.178;2023-05-24T02:10:20;93489.81;;;9.95;100.00
11011;BME280;5558;42.702;23.178;2023-05-24T02:12:47;93494.84;;;9.97;100.00
11011;BME280;5558;42.702;23.178;2023-05-24T02:15:14;93460.47;;;9.66;100.00
11011;BME280;5558;42.702;23.178;2023-05-24T02:17:42;93500.13;;;9.86;100.00
11011;BME280;5558;42.702;23.178;2023-05-24T02:20:11;93495.13;;;9.85;100.00
11011;BME280;5558;42.702;23.178;2023-05-24T02:22:38;93493.00;;;9.82;100.00
11011;BME280;5558;42.702;23.178;2023-05-24T02:25:05;93482.16;;;9.68;100.00
11011;BME280;5558;42.702;23.178;2023-05-24T02:27:32;93477.66;;;9.69;100.00
11011;BME280;5558;42.702;23.178;2023-05-24T02:29:59;93464.13;;;9.45;100.00
11011;BME280;5558;42.702;23.178;2023-05-24T02:32:25;93486.84;;;9.36;100.00
11011;BME280;5558;42.702;23.178;2023-05-24T02:34:53;93492.38;;;9.25;100.00
11011;BME280;5558;42.702;23.178;2023-05-24T02:37:20;93457.44;;;8.98;100.00
11011;BME280;5558;42.702;23.178;2023-05-24T02:39:47;93502.16;;;9.29;100.00
11011;BME280;5558;42.702;23.178;2023-05-24T02:42:13;93504.75;;;9.14;100.00
11011;BME280;5558;42.702;23.178;2023-05-24T02:44:40;93503.38;;;9.02;100.00
11011;BME280;5558;42.702;23.178;2023-05-24T02:47:07;93514.22;;;9.10;100.00
11011;BME280;5558;42.702;23.178;2023-05-24T02:49:34;93521.84;;;9.02;100.00
11011;BME280;5558;42.702;23.178;2023-05-24T02:52:03;93517.94;;;9.14;100.00
11011;BME280;5558;42.702;23.178;2023-05-24T02:54:29;93517.72;;;9.31;100.00
11011;BME280;5558;42.702;23.178;2023-05-24T02:56:56;93509.59;;;9.57;100.00
11011;BME280;5558;42.702;23.178;2023-05-24T02:59:23;93507.22;;;9.61;100.00
11011;BME280;5558;42.702;23.178;2023-05-24T03:01:50;93515.94;;;9.56;100.00
11011;BME280;5558;42.702;23.178;2023-05-24T03:04:17;93505.09;;;9.53;100.00
11011;BME280;5558;42.702;23.178;2023-05-24T03:06:43;93522.81;;;9.67;100.00
11011;BME280;5558;42.702;23.178;2023-05-24T03:09:12;93522.31;;;9.55;100.00
11011;BME280;5558;42.702;23.178;2023-05-24T03:11:41;93518.09;;;9.84;100.00
11011;BME280;5558;42.702;23.178;2023-05-24T03:14:07;93514.47;;;10.11;100.00
11011;BME280;5558;42.702;23.178;2023-05-24T03:16:35;93515.00;;;10.18;100.00
11011;BME280;5558;42.702;23.178;2023-05-24T03:19:02;93507.84;;;10.43;100.00
11011;BME280;5558;42.702;23.178;2023-05-24T03:21:29;93509.47;;;11.13;100.00
11011;BME280;5558;42.702;23.178;2023-05-24T03:23:56;93506.13;;;12.00;100.00
11011;BME280;5558;42.702;23.178;2023-05-24T03:26:24;93512.03;;;12.83;100.00
11011;BME280;5558;42.702;23.178;2023-05-24T03:28:51;93509.63;;;13.33;100.00
11011;BME280;5558;42.702;23.178;2023-05-24T03:31:18;93503.56;;;13.70;100.00
11011;BME280;5558;42.702;23.178;2023-05-24T03:33:48;93492.44;;;14.05;100.00
11011;BME280;5558;42.702;23.178;2023-05-24T03:36:15;93506.03;;;15.00;100.00
11011;BME280;5558;42.702;23.178;2023-05-24T03:38:41;93507.91;;;16.17;100.00
11011;BME280;5558;42.702;23.178;2023-05-24T03:41:08;93504.28;;;16.79;85.38
11011;BME280;5558;42.702;23.178;2023-05-24T03:43:36;93499.00;;;17.66;77.87
11011;BME280;5558;42.702;23.178;2023-05-24T03:46:03;93508.41;;;18.54;71.32
11011;BME280;5558;42.702;23.178;2023-05-24T03:48:30;93504.94;;;19.25;64.53
11011;BME280;5558;42.702;23.178;2023-05-24T03:50:56;93507.41;;;19.85;60.88
11011;BME280;5558;42.702;23.178;2023-05-24T03:53:24;93504.63;;;20.63;57.91
11011;BME280;5558;42.702;23.178;2023-05-24T03:55:51;93497.97;;;21.14;54.81
11011;BME280;5558;42.702;23.178;2023-05-24T03:58:17;93500.22;;;22.17;51.66
11011;BME280;5558;42.702;23.178;2023-05-24T04:00:46;93497.41;;;22.93;50.23
11011;BME280;5558;42.702;23.178;2023-05-24T04:03:12;93499.53;;;23.89;46.82
11011;BME280;5558;42.702;23.178;2023-05-24T04:05:39;93506.97;;;24.62;44.88
11011;BME280;5558;42.702;23.178;2023-05-24T04:08:06;93508.59;;;25.43;42.76
11011;BME280;5558;42.702;23.178;2023-05-24T04:10:32;93506.50;;;26.23;41.01
11011;BME280;5558;42.702;23.178;2023-05-24T04:12:59;93507.22;;;27.05;39.15
11011;BME280;5558;42.702;23.178;2023-05-24T04:15:26;93504.00;;;27.63;37.91
11011;BME280;5558;42.702;23.178;2023-05-24T04:17:54;93503.09;;;28.39;36.19
11011;BME280;5558;42.702;23.178;2023-05-24T04:20:22;93509.75;;;29.13;35.48
11011;BME280;5558;42.702;23.178;2023-05-24T04:22:49;93505.50;;;29.19;34.27
11011;BME280;5558;42.702;23.178;2023-05-24T04:25:16;93507.25;;;30.43;32.11
11011;BME280;5558;42.702;23.178;2023-05-24T04:27:43;93512.31;;;30.69;31.34
11011;BME280;5558;42.702;23.178;2023-05-24T04:30:13;93509.19;;;30.67;31.73
11011;BME280;5558;42.702;23.178;2023-05-24T04:32:40;93516.38;;;31.44;30.68
11011;BME280;5558;42.702;23.178;2023-05-24T04:35:10;93515.66;;;32.02;29.75
11011;BME280;5558;42.702;23.178;2023-05-24T04:37:37;93522.53;;;32.28;28.79
11011;BME280;5558;42.702;23.178;2023-05-24T04:40:05;93526.94;;;32.66;28.71
11011;BME280;5558;42.702;23.178;2023-05-24T04:42:32;93527.34;;;32.13;29.29
11011;BME280;5558;42.702;23.178;2023-05-24T04:45:00;93527.31;;;33.05;27.55
11011;BME280;5558;42.702;23.178;2023-05-24T04:47:27;93533.44;;;33.19;27.26
11011;BME280;5558;42.702;23.178;2023-05-24T04:49:53;93532.81;;;33.42;27.15
11011;BME280;5558;42.702;23.178;2023-05-24T04:52:21;93534.09;;;33.94;27.89
11011;BME280;5558;42.702;23.178;2023-05-24T04:54:48;93529.31;;;34.25;27.46
11011;BME280;5558;42.702;23.178;2023-05-24T04:57:15;93532.25;;;33.84;27.22
11011;BME280;5558;42.702;23.178;2023-05-24T04:59:42;93524.34;;;32.89;28.58
11011;BME280;5558;42.702;23.178;2023-05-24T05:02:09;93530.63;;;32.45;29.10
11011;BME280;5558;42.702;23.178;2023-05-24T05:04:36;93530.97;;;31.96;29.85
11011;BME280;5558;42.702;23.178;2023-05-24T05:07:03;93534.56;;;31.89;29.41
11011;BME280;5558;42.702;23.178;2023-05-24T05:09:31;93541.56;;;30.13;31.30
11011;BME280;5558;42.702;23.178;2023-05-24T05:11:57;93533.44;;;30.30;31.43
11011;BME280;5558;42.702;23.178;2023-05-24T05:14:25;93538.78;;;31.04;30.98
11011;BME280;5558;42.702;23.178;2023-05-24T05:16:51;93542.75;;;30.78;31.24
11011;BME280;5558;42.702;23.178;2023-05-24T05:19:18;93538.09;;;30.33;31.71
11011;BME280;5558;42.702;23.178;2023-05-24T05:21:45;93542.91;;;29.22;33.12
11011;BME280;5558;42.702;23.178;2023-05-24T05:24:13;93549.81;;;30.30;32.34
11011;BME280;5558;42.702;23.178;2023-05-24T05:26:42;93549.34;;;29.79;32.56
11011;BME280;5558;42.702;23.178;2023-05-24T05:29:08;93543.56;;;30.12;31.94
11011;BME280;5558;42.702;23.178;2023-05-24T05:31:35;93549.94;;;31.59;30.64
11011;BME280;5558;42.702;23.178;2023-05-24T05:34:02;93549.97;;;31.52;30.33
11011;BME280;5558;42.702;23.178;2023-05-24T05:36:28;93538.66;;;31.43;30.31
11011;BME280;5558;42.702;23.178;2023-05-24T05:38:55;93545.31;;;32.17;29.68
11011;BME280;5558;42.702;23.178;2023-05-24T05:41:22;93550.84;;;32.62;29.06
11011;BME280;5558;42.702;23.178;2023-05-24T05:43:50;93554.22;;;33.54;28.39
11011;BME280;5558;42.702;23.178;2023-05-24T05:46:16;93559.16;;;33.32;28.03
11011;BME280;5558;42.702;23.178;2023-05-24T05:48:45;93554.16;;;32.39;29.37
11011;BME280;5558;42.702;23.178;2023-05-24T05:51:12;93554.56;;;31.76;29.51
11011;BME280;5558;42.702;23.178;2023-05-24T05:53:38;93556.00;;;32.97;28.46
11011;BME280;5558;42.702;23.178;2023-05-24T05:56:05;93557.97;;;31.94;29.59
11011;BME280;5558;42.702;23.178;2023-05-24T05:58:32;93557.13;;;31.11;30.10
11011;BME280;5558;42.702;23.178;2023-05-24T06:01:00;93566.91;;;31.12;29.87
11011;BME280;5558;42.702;23.178;2023-05-24T06:03:26;93561.13;;;30.67;31.11
11011;BME280;5558;42.702;23.178;2023-05-24T06:05:53;93554.44;;;31.03;30.17
11011;BME280;5558;42.702;23.178;2023-05-24T06:08:20;93571.16;;;31.34;29.51
11011;BME280;5558;42.702;23.178;2023-05-24T06:10:46;93567.66;;;31.33;30.09
11011;BME280;5558;42.702;23.178;2023-05-24T06:13:13;93567.00;;;31.84;29.98
11011;BME280;5558;42.702;23.178;2023-05-24T06:15:40;93575.03;;;32.19;28.92
11011;BME280;5558;42.702;23.178;2023-05-24T06:18:08;93571.22;;;32.06;29.50
11011;BME280;5558;42.702;23.178;2023-05-24T06:20:35;93564.50;;;31.28;29.83
11011;BME280;5558;42.702;23.178;2023-05-24T06:23:02;93557.59;;;30.95;30.15
11011;BME280;5558;42.702;23.178;2023-05-24T06:25:29;93569.13;;;31.52;28.98
11011;BME280;5558;42.702;23.178;2023-05-24T06:27:57;93572.88;;;33.32;27.37
11011;BME280;5558;42.702;23.178;2023-05-24T06:30:23;93575.53;;;33.06;28.29
11011;BME280;5558;42.702;23.178;2023-05-24T06:32:50;93577.41;;;33.50;27.63
11011;BME280;5558;42.702;23.178;2023-05-24T06:35:18;93582.56;;;33.44;27.01
11011;BME280;5558;42.702;23.178;2023-05-24T06:37:45;93579.84;;;33.03;27.47
11011;BME280;5558;42.702;23.178;2023-05-24T06:40:12;93577.00;;;33.14;27.54
11011;BME280;5558;42.702;23.178;2023-05-24T06:42:39;93565.06;;;33.31;28.02
11011;BME280;5558;42.702;23.178;2023-05-24T06:45:07;93572.31;;;33.14;27.53
11011;BME280;5558;42.702;23.178;2023-05-24T06:47:33;93574.00;;;33.01;27.42
11011;BME280;5558;42.702;23.178;2023-05-24T06:50:01;93575.53;;;33.40;27.42
11011;BME280;5558;42.702;23.178;2023-05-24T06:52:29;93547.59;;;33.52;26.72
11011;BME280;5558;42.702;23.178;2023-05-24T06:54:56;93578.09;;;34.17;26.22
11011;BME280;5558;42.702;23.178;2023-05-24T06:57:23;93576.72;;;32.61;27.64
11011;BME280;5558;42.702;23.178;2023-05-24T06:59:49;93576.00;;;32.97;27.97
11011;BME280;5558;42.702;23.178;2023-05-24T07:02:16;93578.44;;;32.37;27.71
11011;BME280;5558;42.702;23.178;2023-05-24T07:04:43;93578.81;;;32.36;29.07
11011;BME280;5558;42.702;23.178;2023-05-24T07:07:10;93565.00;;;32.53;29.04
11011;BME280;5558;42.702;23.178;2023-05-24T07:09:40;93568.50;;;31.99;28.77
11011;BME280;5558;42.702;23.178;2023-05-24T07:12:07;93561.25;;;32.33;28.82
11011;BME280;5558;42.702;23.178;2023-05-24T07:14:34;93566.84;;;32.15;28.87
11011;BME280;5558;42.702;23.178;2023-05-24T07:17:00;93567.66;;;32.12;28.91
11011;BME280;5558;42.702;23.178;2023-05-24T07:19:27;93565.75;;;32.06;29.55
11011;BME280;5558;42.702;23.178;2023-05-24T07:21:54;93565.63;;;31.44;30.58
11011;BME280;5558;42.702;23.178;2023-05-24T07:24:21;93565.78;;;30.67;31.21
11011;BME280;5558;42.702;23.178;2023-05-24T07:26:50;93568.00;;;29.63;31.84
11011;BME280;5558;42.702;23.178;2023-05-24T07:29:18;93569.28;;;29.08;32.45
11011;BME280;5558;42.702;23.178;2023-05-24T07:31:45;93570.22;;;28.64;32.69
11011;BME280;5558;42.702;23.178;2023-05-24T07:34:12;93560.34;;;28.46;33.04
11011;BME280;5558;42.702;23.178;2023-05-24T07:36:39;93568.53;;;28.49;32.98
11011;BME280;5558;42.702;23.178;2023-05-24T07:39:06;93570.47;;;28.49;34.40
11011;BME280;5558;42.702;23.178;2023-05-24T07:41:34;93536.56;;;27.92;33.77
11011;BME280;5558;42.702;23.178;2023-05-24T07:44:02;93576.50;;;27.48;34.75
11011;BME280;5558;42.702;23.178;2023-05-24T07:46:29;93575.38;;;27.52;35.12
11011;BME280;5558;42.702;23.178;2023-05-24T07:48:56;93569.78;;;27.38;35.78
11011;BME280;5558;42.702;23.178;2023-05-24T07:51:23;93569.25;;;27.00;35.93
11011;BME280;5558;42.702;23.178;2023-05-24T07:53:50;93572.34;;;26.98;35.14
11011;BME280;5558;42.702;23.178;2023-05-24T07:56:17;93570.94;;;26.29;37.05
11011;BME280;5558;42.702;23.178;2023-05-24T07:58:44;93568.19;;;26.52;36.61
11011;BME280;5558;42.702;23.178;2023-05-24T08:01:13;93563.69;;;26.63;37.07
11011;BME280;5558;42.702;23.178;2023-05-24T08:03:40;93563.28;;;26.61;37.60
11011;BME280;5558;42.702;23.178;2023-05-24T08:06:07;93562.28;;;26.20;38.56
11011;BME280;5558;42.702;23.178;2023-05-24T08:08:35;93557.16;;;26.15;37.47
11011;BME280;5558;42.702;23.178;2023-05-24T08:11:02;93558.97;;;26.08;38.22
11011;BME280;5558;42.702;23.178;2023-05-24T08:13:28;93562.16;;;26.13;38.79
11011;BME280;5558;42.702;23.178;2023-05-24T08:15:55;93562.53;;;25.93;38.71
11011;BME280;5558;42.702;23.178;2023-05-24T08:18:24;93559.44;;;25.91;37.33
11011;BME280;5558;42.702;23.178;2023-05-24T08:20:51;93563.59;;;25.43;36.26
11011;BME280;5558;42.702;23.178;2023-05-24T08:23:17;93565.28;;;25.32;34.48
11011;BME280;5558;42.702;23.178;2023-05-24T08:25:44;93570.00;;;25.35;34.15
11011;BME280;5558;42.702;23.178;2023-05-24T08:28:11;93565.03;;;25.18;31.42
11011;BME280;5558;42.702;23.178;2023-05-24T08:30:38;93564.97;;;25.14;35.54
11011;BME280;5558;42.702;23.178;2023-05-24T08:33:04;93565.66;;;24.92;35.30
11011;BME280;5558;42.702;23.178;2023-05-24T08:35:32;93564.94;;;23.79;34.75
11011;BME280;5558;42.702;23.178;2023-05-24T08:38:00;93559.28;;;24.00;36.14
11011;BME280;5558;42.702;23.178;2023-05-24T08:40:27;93562.31;;;23.67;37.78
11011;BME280;5558;42.702;23.178;2023-05-24T08:42:54;93556.19;;;23.70;36.57
11011;BME280;5558;42.702;23.178;2023-05-24T08:45:21;93556.72;;;24.23;37.16
11011;BME280;5558;42.702;23.178;2023-05-24T08:47:49;93552.63;;;23.66;39.28
11011;BME280;5558;42.702;23.178;2023-05-24T08:50:16;93557.06;;;23.59;40.69
11011;BME280;5558;42.702;23.178;2023-05-24T08:52:45;93556.56;;;22.98;38.02
11011;BME280;5558;42.702;23.178;2023-05-24T08:55:13;93558.19;;;22.75;36.17
11011;BME280;5558;42.702;23.178;2023-05-24T08:57:40;93548.47;;;22.98;37.89
11011;BME280;5558;42.702;23.178;2023-05-24T09:00:08;93547.09;;;23.32;40.02
11011;BME280;5558;42.702;23.178;2023-05-24T09:02:37;93552.88;;;23.46;37.52
11011;BME280;5558;42.702;23.178;2023-05-24T09:05:07;93553.31;;;23.63;36.56
11011;BME280;5558;42.702;23.178;2023-05-24T09:07:35;93552.28;;;23.52;37.07
11011;BME280;5558;42.702;23.178;2023-05-24T09:10:05;93551.31;;;23.60;36.51
11011;BME280;5558;42.702;23.178;2023-05-24T09:12:33;93549.56;;;23.68;35.51
11011;BME280;5558;42.702;23.178;2023-05-24T09:15:02;93550.28;;;23.96;36.19
11011;BME280;5558;42.702;23.178;2023-05-24T09:17:29;93551.56;;;24.33;36.07
11011;BME280;5558;42.702;23.178;2023-05-24T09:19:57;93547.47;;;23.77;35.49
11011;BME280;5558;42.702;23.178;2023-05-24T09:22:27;93542.16;;;23.22;35.95
11011;BME280;5558;42.702;23.178;2023-05-24T09:24:57;93545.41;;;23.27;37.16
11011;BME280;5558;42.702;23.178;2023-05-24T09:27:25;93550.72;;;22.96;36.52
11011;BME280;5558;42.702;23.178;2023-05-24T09:29:52;93528.13;;;23.44;38.80
11011;BME280;5558;42.702;23.178;2023-05-24T09:32:21;93541.63;;;23.59;37.59
11011;BME280;5558;42.702;23.178;2023-05-24T09:34:50;93542.41;;;23.60;37.32
11011;BME280;5558;42.702;23.178;2023-05-24T09:37:18;93535.41;;;23.00;39.49
11011;BME280;5558;42.702;23.178;2023-05-24T09:39:46;93541.81;;;22.95;36.19
11011;BME280;5558;42.702;23.178;2023-05-24T09:42:15;93518.25;;;23.08;37.81
11011;BME280;5558;42.702;23.178;2023-05-24T09:44:46;93533.09;;;23.57;36.69
11011;BME280;5558;42.702;23.178;2023-05-24T09:47:13;93541.72;;;23.78;38.83
11011;BME280;5558;42.702;23.178;2023-05-24T09:49:40;93535.03;;;24.03;37.07
11011;BME280;5558;42.702;23.178;2023-05-24T09:52:07;93534.47;;;24.13;37.38
11011;BME280;5558;42.702;23.178;2023-05-24T09:54:35;93535.63;;;24.13;35.17
11011;BME280;5558;42.702;23.178;2023-05-24T09:57:01;93537.03;;;23.75;36.31
11011;BME280;5558;42.702;23.178;2023-05-24T09:59:31;93533.38;;;23.25;34.53
11011;BME280;5558;42.702;23.178;2023-05-24T10:02:08;93534.13;;;23.53;35.15
11011;BME280;5558;42.702;23.178;2023-05-24T10:04:35;93522.28;;;23.88;34.72
11011;BME280;5558;42.702;23.178;2023-05-24T10:07:03;93530.84;;;24.06;36.86
11011;BME280;5558;42.702;23.178;2023-05-24T10:09:30;93520.41;;;24.24;36.99
11011;BME280;5558;42.702;23.178;2023-05-24T10:12:01;93525.69;;;24.17;32.84
11011;BME280;5558;42.702;23.178;2023-05-24T10:14:31;93521.66;;;23.48;34.75
11011;BME280;5558;42.702;23.178;2023-05-24T10:16:59;93525.13;;;23.33;34.07
11011;BME280;5558;42.702;23.178;2023-05-24T10:19:27;93533.41;;;23.40;33.66
11011;BME280;5558;42.702;23.178;2023-05-24T10:21:55;93524.03;;;23.96;35.41
11011;BME280;5558;42.702;23.178;2023-05-24T10:24:24;93512.25;;;23.89;33.07
11011;BME280;5558;42.702;23.178;2023-05-24T10:26:52;93525.59;;;23.97;31.46
11011;BME280;5558;42.702;23.178;2023-05-24T10:29:28;93517.56;;;23.85;34.94
11011;BME280;5558;42.702;23.178;2023-05-24T10:31:59;93521.41;;;23.84;33.91
11011;BME280;5558;42.702;23.178;2023-05-24T10:34:27;93516.25;;;23.48;37.15
11011;BME280;5558;42.702;23.178;2023-05-24T10:36:56;93522.03;;;23.78;35.47
11011;BME280;5558;42.702;23.178;2023-05-24T10:39:24;93502.91;;;24.02;31.80
11011;BME280;5558;42.702;23.178;2023-05-24T10:41:51;93514.56;;;24.56;31.29
11011;BME280;5558;42.702;23.178;2023-05-24T10:44:18;93514.63;;;24.75;31.08
11011;BME280;5558;42.702;23.178;2023-05-24T10:47:01;93509.78;;;25.03;34.01
11011;BME280;5558;42.702;23.178;2023-05-24T10:49:30;93513.28;;;24.85;33.52
11011;BME280;5558;42.702;23.178;2023-05-24T10:52:00;93505.72;;;24.75;35.38
11011;BME280;5558;42.702;23.178;2023-05-24T10:54:28;93500.47;;;24.47;31.43
11011;BME280;5558;42.702;23.178;2023-05-24T10:56:54;93501.78;;;24.91;30.63
11011;BME280;5558;42.702;23.178;2023-05-24T10:59:30;93485.88;;;25.28;31.06
11011;BME280;5558;42.702;23.178;2023-05-24T11:02:00;93498.13;;;24.65;35.63
11011;BME280;5558;42.702;23.178;2023-05-24T11:04:32;93488.81;;;24.28;32.59
11011;BME280;5558;42.702;23.178;2023-05-24T11:07:03;93479.72;;;24.17;38.91
11011;BME280;5558;42.702;23.178;2023-05-24T11:09:31;93499.13;;;24.22;35.15
11011;BME280;5558;42.702;23.178;2023-05-24T11:12:00;93495.66;;;24.22;32.87
11011;BME280;5558;42.702;23.178;2023-05-24T11:14:29;93486.16;;;24.12;33.82
11011;BME280;5558;42.702;23.178;2023-05-24T11:16:57;93483.44;;;24.47;32.64
11011;BME280;5558;42.702;23.178;2023-05-24T11:19:31;93493.63;;;24.69;32.27
11011;BME280;5558;42.702;23.178;2023-05-24T11:22:01;93486.59;;;24.49;31.87
11011;BME280;5558;42.702;23.178;2023-05-24T11:24:28;93476.47;;;24.65;32.60
11011;BME280;5558;42.702;23.178;2023-05-24T11:26:56;93484.13;;;24.78;32.11
11011;BME280;5558;42.702;23.178;2023-05-24T11:29:23;93483.03;;;24.83;31.77
11011;BME280;5558;42.702;23.178;2023-05-24T11:31:51;93482.66;;;25.22;31.75
11011;BME280;5558;42.702;23.178;2023-05-24T11:34:18;93473.88;;;25.48;33.05
11011;BME280;5558;42.702;23.178;2023-05-24T11:36:47;93468.25;;;25.18;31.33
11011;BME280;5558;42.702;23.178;2023-05-24T11:39:14;93472.56;;;25.39;34.35
11011;BME280;5558;42.702;23.178;2023-05-24T11:41:42;93475.00;;;24.86;31.81
11011;BME280;5558;42.702;23.178;2023-05-24T11:44:10;93471.53;;;24.86;32.97
11011;BME280;5558;42.702;23.178;2023-05-24T11:46:38;93469.00;;;24.96;32.03
11011;BME280;5558;42.702;23.178;2023-05-24T11:49:06;93472.56;;;25.19;31.76
11011;BME280;5558;42.702;23.178;2023-05-24T11:51:33;93462.69;;;24.89;32.24
11011;BME280;5558;42.702;23.178;2023-05-24T11:54:03;93462.53;;;25.01;32.46
11011;BME280;5558;42.702;23.178;2023-05-24T11:56:30;93453.44;;;25.12;33.75
11011;BME280;5558;42.702;23.178;2023-05-24T11:59:08;93460.06;;;25.15;32.42
11011;BME280;5558;42.702;23.178;2023-05-24T12:01:35;93461.09;;;25.07;33.72
11011;BME280;5558;42.702;23.178;2023-05-24T12:04:04;93456.97;;;24.94;34.09
11011;BME280;5558;42.702;23.178;2023-05-24T12:06:36;93424.41;;;24.71;33.98
11011;BME280;5558;42.702;23.178;2023-05-24T12:09:05;93447.84;;;24.64;36.97
11011;BME280;5558;42.702;23.178;2023-05-24T12:11:38;93455.09;;;24.60;35.61
11011;BME280;5558;42.702;23.178;2023-05-24T12:14:05;93455.28;;;24.13;35.75
11011;BME280;5558;42.702;23.178;2023-05-24T12:16:32;93453.44;;;24.36;35.38
11011;BME280;5558;42.702;23.178;2023-05-24T12:19:01;93456.69;;;24.61;33.96
11011;BME280;5558;42.702;23.178;2023-05-24T12:21:29;93450.34;;;24.91;32.18
11011;BME280;5558;42.702;23.178;2023-05-24T12:24:07;93446.22;;;24.97;32.83
11011;BME280;5558;42.702;23.178;2023-05-24T12:26:35;93442.56;;;24.90;32.69
11011;BME280;5558;42.702;23.178;2023-05-24T12:29:02;93438.06;;;25.16;32.83
11011;BME280;5558;42.702;23.178;2023-05-24T12:31:29;93427.31;;;25.23;32.80
11011;BME280;5558;42.702;23.178;2023-05-24T12:33:56;93434.56;;;25.61;32.78
11011;BME280;5558;42.702;23.178;2023-05-24T12:36:23;93426.16;;;25.44;32.34
11011;BME280;5558;42.702;23.178;2023-05-24T12:38:50;93430.69;;;25.17;34.22
11011;BME280;5558;42.702;23.178;2023-05-24T12:41:18;93425.69;;;24.58;33.18
11011;BME280;5558;42.702;23.178;2023-05-24T12:43:45;93418.91;;;24.87;33.71
11011;BME280;5558;42.702;23.178;2023-05-24T12:46:11;93416.66;;;24.89;32.70
11011;BME280;5558;42.702;23.178;2023-05-24T12:48:38;93412.34;;;24.88;32.98
11011;BME280;5558;42.702;23.178;2023-05-24T12:51:05;93430.97;;;24.89;33.88
11011;BME280;5558;42.702;23.178;2023-05-24T12:53:32;93421.34;;;24.54;34.41
11011;BME280;5558;42.702;23.178;2023-05-24T12:55:59;93413.50;;;24.68;35.47
11011;BME280;5558;42.702;23.178;2023-05-24T12:58:27;93412.16;;;25.19;35.12
11011;BME280;5558;42.702;23.178;2023-05-24T13:00:54;93410.97;;;25.39;34.00
11011;BME280;5558;42.702;23.178;2023-05-24T13:03:21;93418.25;;;24.93;34.36